createdAt,value
2023-03-26T00:02:07.764Z,82.58
2023-03-26T00:04:35.680Z,82.52
2023-03-26T00:07:05.246Z,82.72
2023-03-26T00:09:33.170Z,82.96
2023-03-26T00:12:03.853Z,83.14
2023-03-26T00:14:32.659Z,83.00
2023-03-26T00:17:00.585Z,83.23
2023-03-26T00:19:30.158Z,82.64
2023-03-26T00:21:58.263Z,82.91
2023-03-26T00:24:29.597Z,83.18
2023-03-26T00:26:58.179Z,83.48
2023-03-26T00:29:28.006Z,83.04
2023-03-26T00:32:01.800Z,83.28
2023-03-26T00:34:35.319Z,82.96
2023-03-26T00:37:05.786Z,82.44
2023-03-26T00:39:37.638Z,81.54
2023-03-26T00:42:08.322Z,81.72
2023-03-26T00:44:36.737Z,81.54
2023-03-26T00:47:05.904Z,81.61
2023-03-26T00:49:37.004Z,81.55
2023-03-26T00:52:08.910Z,81.26
2023-03-26T00:54:40.791Z,81.15
2023-03-26T00:57:11.064Z,81.06
2023-03-26T00:59:41.117Z,80.34
2023-03-26T01:02:17.685Z,80.64
2023-03-26T01:04:49.538Z,80.60
2023-03-26T01:07:21.990Z,80.62
2023-03-26T01:09:54.155Z,80.47
2023-03-26T01:12:27.216Z,80.38
2023-03-26T01:15:01.773Z,81.47
2023-03-26T01:17:37.923Z,82.61
2023-03-26T01:20:15.317Z,83.53
2023-03-26T01:22:53.070Z,84.57
2023-03-26T01:25:34.189Z,84.59
2023-03-26T01:28:12.604Z,84.76
2023-03-26T01:30:49.859Z,84.50
2023-03-26T01:33:30.674Z,84.69
2023-03-26T01:36:07.877Z,84.35
2023-03-26T01:38:51.019Z,84.69
2023-03-26T01:41:31.106Z,84.24
2023-03-26T01:44:09.106Z,84.27
2023-03-26T01:46:38.031Z,84.49
2023-03-26T01:49:12.865Z,84.01
2023-03-26T01:51:43.762Z,83.72
2023-03-26T01:54:19.536Z,83.22
2023-03-26T01:57:06.258Z,83.54
2023-03-26T01:59:56.612Z,82.61
2023-03-26T02:02:37.137Z,83.20
2023-03-26T02:05:18.182Z,82.95
2023-03-26T02:07:56.418Z,82.70
2023-03-26T02:10:30.820Z,82.99
2023-03-26T02:13:03.030Z,82.93
2023-03-26T02:15:35.540Z,82.92
2023-03-26T02:18:04.978Z,83.25
2023-03-26T02:20:37.123Z,82.90
2023-03-26T02:23:13.062Z,83.67
2023-03-26T02:25:46.062Z,84.14
2023-03-26T02:28:26.675Z,85.12
2023-03-26T02:31:02.963Z,85.45
2023-03-26T02:33:33.416Z,85.75
2023-03-26T02:36:09.460Z,86.06
2023-03-26T02:38:43.346Z,86.30
2023-03-26T02:41:18.701Z,86.46
2023-03-26T02:43:53.083Z,86.20
2023-03-26T02:46:27.268Z,86.64
2023-03-26T02:49:03.056Z,85.98
2023-03-26T02:51:36.919Z,85.63
2023-03-26T02:54:10.249Z,85.29
2023-03-26T02:56:47.994Z,85.26
2023-03-26T02:59:22.258Z,84.99
2023-03-26T03:01:53.891Z,84.82
2023-03-26T03:04:27.952Z,84.80
2023-03-26T03:07:04.299Z,84.78
2023-03-26T03:09:40.797Z,85.08
2023-03-26T03:12:13.043Z,84.74
2023-03-26T03:14:47.645Z,84.56
2023-03-26T03:17:23.913Z,84.37
2023-03-26T03:19:56.505Z,84.15
2023-03-26T03:22:29.309Z,83.97
2023-03-26T03:25:00.923Z,83.76
2023-03-26T03:27:34.873Z,83.46
2023-03-26T03:30:10.862Z,83.23
2023-03-26T03:32:43.917Z,83.22
2023-03-26T03:35:15.450Z,83.09
2023-03-26T03:37:49.714Z,83.03
2023-03-26T03:40:22.837Z,83.44
2023-03-26T03:42:51.012Z,83.57
2023-03-26T03:45:27.592Z,83.99
2023-03-26T03:48:00.550Z,84.28
2023-03-26T03:50:35.849Z,84.29
2023-03-26T03:53:12.228Z,84.62
2023-03-26T03:55:54.124Z,84.27
2023-03-26T03:58:28.479Z,84.12
2023-03-26T04:01:00.704Z,84.16
2023-03-26T04:03:33.481Z,84.76
2023-03-26T04:06:08.218Z,85.09
2023-03-26T04:08:40.327Z,85.52
2023-03-26T04:11:10.757Z,85.49
2023-03-26T04:13:42.292Z,85.38
2023-03-26T04:16:21.133Z,85.59
2023-03-26T04:18:49.322Z,85.65
2023-03-26T04:21:19.361Z,85.45
2023-03-26T04:23:54.370Z,85.38
2023-03-26T04:26:25.882Z,84.98
2023-03-26T04:29:00.897Z,85.11
2023-03-26T04:31:31.183Z,85.17
2023-03-26T04:34:09.107Z,85.38
2023-03-26T04:36:40.906Z,85.26
2023-03-26T04:39:14.334Z,85.25
2023-03-26T04:41:42.628Z,85.11
2023-03-26T04:44:11.810Z,85.29
2023-03-26T04:46:46.967Z,85.55
2023-03-26T04:49:21.706Z,85.54
2023-03-26T04:51:57.587Z,84.99
2023-03-26T04:54:30.684Z,84.79
2023-03-26T04:57:09.589Z,84.77
2023-03-26T04:59:44.346Z,85.11
2023-03-26T05:02:19.720Z,84.82
2023-03-26T05:04:55.877Z,84.00
2023-03-26T05:07:28.961Z,83.98
2023-03-26T05:10:04.763Z,84.04
2023-03-26T05:12:36.352Z,84.10
2023-03-26T05:15:10.324Z,84.73
2023-03-26T05:17:45.454Z,84.80
2023-03-26T05:20:27.650Z,84.99
2023-03-26T05:23:00.089Z,85.40
2023-03-26T05:25:28.159Z,85.26
2023-03-26T05:27:56.051Z,85.46
2023-03-26T05:30:24.196Z,85.77
2023-03-26T05:32:53.521Z,85.42
2023-03-26T05:35:21.735Z,85.95
2023-03-26T05:37:51.426Z,85.82
2023-03-26T05:40:20.130Z,85.83
2023-03-26T05:42:48.446Z,87.35
2023-03-26T05:45:16.803Z,87.55
2023-03-26T05:47:44.755Z,87.51
2023-03-26T05:50:14.025Z,87.95
2023-03-26T05:52:42.443Z,87.88
2023-03-26T05:55:11.328Z,89.42
2023-03-26T05:57:39.190Z,89.58
2023-03-26T06:00:11.201Z,88.28
2023-03-26T06:02:39.221Z,87.55
2023-03-26T06:05:09.836Z,88.18
2023-03-26T06:07:39.222Z,88.22
2023-03-26T06:10:09.346Z,88.81
2023-03-26T06:12:37.804Z,89.10
2023-03-26T06:15:09.459Z,89.15
2023-03-26T06:17:37.491Z,89.52
2023-03-26T06:20:09.429Z,89.16
2023-03-26T06:22:38.998Z,89.05
2023-03-26T06:25:08.701Z,88.79
2023-03-26T06:27:36.608Z,88.36
2023-03-26T06:30:05.601Z,88.16
2023-03-26T06:32:33.687Z,87.53
2023-03-26T06:35:01.618Z,87.04
2023-03-26T06:37:29.757Z,86.57
2023-03-26T06:39:59.103Z,85.74
2023-03-26T06:43:08.020Z,85.80
2023-03-26T06:45:15.025Z,85.08
2023-03-26T06:47:43.022Z,85.34
2023-03-26T06:50:12.543Z,85.25
2023-03-26T06:52:40.961Z,84.45
2023-03-26T06:55:11.256Z,84.35
2023-03-26T06:57:39.854Z,84.22
2023-03-26T07:00:09.746Z,84.94
2023-03-26T07:02:37.751Z,83.99
2023-03-26T07:05:06.369Z,83.33
2023-03-26T07:07:34.322Z,82.78
2023-03-26T07:10:02.261Z,82.79
2023-03-26T07:12:31.729Z,81.99
2023-03-26T07:15:01.865Z,82.07
2023-03-26T07:17:29.876Z,81.81
2023-03-26T07:19:58.194Z,82.33
2023-03-26T07:22:27.466Z,82.19
2023-03-26T07:24:56.538Z,81.21
2023-03-26T07:27:45.233Z,80.24
2023-03-26T07:30:20.788Z,79.86
2023-03-26T07:32:56.764Z,79.45
2023-03-26T07:35:31.326Z,80.77
2023-03-26T07:38:24.685Z,80.76
2023-03-26T07:41:07.891Z,79.37
2023-03-26T07:43:59.875Z,80.41
2023-03-26T07:46:33.978Z,80.14
2023-03-26T07:49:04.547Z,78.98
2023-03-26T07:51:33.799Z,79.15
2023-03-26T07:54:04.122Z,79.22
2023-03-26T07:56:39.675Z,79.25
2023-03-26T07:59:28.773Z,78.40
2023-03-26T08:02:36.965Z,79.45
2023-03-26T08:05:21.261Z,81.01
2023-03-26T08:08:05.654Z,81.85
2023-03-26T08:10:59.288Z,80.24
2023-03-26T08:13:40.180Z,79.80
2023-03-26T08:16:19.957Z,78.86
2023-03-26T08:18:56.383Z,77.91
2023-03-26T08:21:31.641Z,77.82
2023-03-26T08:24:11.001Z,76.95
2023-03-26T08:26:55.107Z,76.45
2023-03-26T08:29:34.463Z,76.36
2023-03-26T08:32:10.353Z,77.15
2023-03-26T08:34:39.001Z,77.71
2023-03-26T08:37:06.935Z,77.35
2023-03-26T08:39:34.922Z,78.43
2023-03-26T08:43:04.720Z,77.83
2023-03-26T08:46:21.802Z,77.92
2023-03-26T08:49:22.797Z,79.37
2023-03-26T08:52:42.952Z,79.94
2023-03-26T08:55:53.471Z,79.81
2023-03-26T08:59:07.381Z,80.89
2023-03-26T09:02:28.534Z,82.88
2023-03-26T09:08:53.693Z,86.53
2023-03-26T09:12:16.628Z,87.60
2023-03-26T09:15:28.856Z,87.95
2023-03-26T09:19:02.222Z,88.08
2023-03-26T09:22:44.698Z,89.15
2023-03-26T09:25:43.426Z,89.34
2023-03-26T09:29:12.676Z,89.71
2023-03-26T09:32:22.517Z,88.34
2023-03-26T09:35:15.742Z,88.06
2023-03-26T09:37:58.806Z,88.27
2023-03-26T09:40:39.637Z,88.25
2023-03-26T09:43:43.056Z,89.13
2023-03-26T09:46:28.594Z,89.07
2023-03-26T09:49:30.286Z,88.42
2023-03-26T09:52:25.351Z,88.53
2023-03-26T09:55:21.161Z,88.29
2023-03-26T09:58:30.286Z,88.38
2023-03-26T10:01:11.007Z,88.40
2023-03-26T10:03:52.772Z,88.02
2023-03-26T10:06:48.037Z,88.09
2023-03-26T10:09:48.288Z,87.99
2023-03-26T10:12:29.405Z,88.06
2023-03-26T10:15:20.007Z,86.68
2023-03-26T10:18:28.019Z,86.51
2023-03-26T10:21:05.577Z,86.20
2023-03-26T10:24:03.533Z,85.74
2023-03-26T10:27:09.046Z,85.45
2023-03-26T10:30:42.570Z,84.99
2023-03-26T10:33:25.148Z,84.65
2023-03-26T10:36:26.862Z,85.48
2023-03-26T10:39:37.955Z,85.70
2023-03-26T10:42:32.520Z,84.61
2023-03-26T10:45:22.746Z,83.90
2023-03-26T10:48:13.774Z,83.16
2023-03-26T10:51:24.404Z,83.87
2023-03-26T10:53:58.079Z,82.80
2023-03-26T10:56:33.459Z,81.96
2023-03-26T10:59:08.133Z,81.58
2023-03-26T11:01:51.968Z,82.03
2023-03-26T11:04:46.848Z,80.84
2023-03-26T11:07:26.187Z,80.32
2023-03-26T11:10:04.731Z,79.63
2023-03-26T11:12:50.167Z,79.01
2023-03-26T11:15:28.806Z,79.09
2023-03-26T11:18:14.558Z,78.08
2023-03-26T11:20:50.598Z,77.99
2023-03-26T11:23:36.758Z,78.62
2023-03-26T11:26:17.732Z,76.78
2023-03-26T11:29:32.701Z,76.21
2023-03-26T11:32:10.713Z,76.21
2023-03-26T11:34:46.992Z,74.38
2023-03-26T11:37:28.444Z,73.74
2023-03-26T11:39:59.782Z,74.12
2023-03-26T11:42:29.726Z,73.66
2023-03-26T11:45:04.163Z,73.56
2023-03-26T11:47:39.732Z,73.90
2023-03-26T11:50:19.650Z,75.04
2023-03-26T11:52:47.916Z,74.89
2023-03-26T11:55:16.778Z,72.04
2023-03-26T11:57:54.721Z,72.67
2023-03-26T12:00:27.309Z,70.77
2023-03-26T12:02:59.449Z,70.18
2023-03-26T12:05:33.408Z,70.55
2023-03-26T12:08:04.778Z,70.93
2023-03-26T12:10:38.641Z,69.79
2023-03-26T12:13:33.355Z,69.16
2023-03-26T12:16:11.461Z,69.31
2023-03-26T12:18:41.662Z,67.77
2023-03-26T12:21:14.087Z,67.58
2023-03-26T12:23:57.170Z,67.89
2023-03-26T12:26:41.412Z,68.23
2023-03-26T12:29:13.436Z,67.95
2023-03-26T12:31:55.466Z,67.05
2023-03-26T12:34:30.519Z,66.18
2023-03-26T12:37:00.914Z,65.19
2023-03-26T12:40:10.128Z,65.88
2023-03-26T12:44:45.117Z,66.32
2023-03-26T12:45:23.123Z,64.80
2023-03-26T12:48:02.200Z,63.95
2023-03-26T12:50:59.244Z,65.05
2023-03-26T12:54:01.907Z,64.61
2023-03-26T12:56:38.605Z,63.02
2023-03-26T12:59:44.029Z,62.58
2023-03-26T13:02:54.791Z,61.68
2023-03-26T13:05:41.081Z,60.96
2023-03-26T13:08:58.042Z,61.21
2023-03-26T13:11:40.871Z,61.84
2023-03-26T13:14:32.228Z,60.77
2023-03-26T13:17:10.134Z,62.19
2023-03-26T13:19:47.590Z,60.33
2023-03-26T13:22:32.012Z,59.95
2023-03-26T13:25:21.564Z,60.17
2023-03-26T13:28:02.193Z,59.38
2023-03-26T13:30:39.036Z,59.61
2023-03-26T13:33:39.543Z,60.24
2023-03-26T13:36:23.877Z,60.29
2023-03-26T13:39:10.904Z,60.27
2023-03-26T13:42:18.206Z,61.10
2023-03-26T13:45:05.809Z,59.31
2023-03-26T13:47:42.112Z,59.75
2023-03-26T13:50:26.140Z,59.45
2023-03-26T13:53:01.997Z,58.53
2023-03-26T13:55:35.965Z,58.20
2023-03-26T13:58:18.163Z,58.42
2023-03-26T14:00:59.024Z,58.85
2023-03-26T14:03:39.802Z,58.46
2023-03-26T14:06:18.033Z,59.05
2023-03-26T14:08:54.906Z,59.10
2023-03-26T14:11:41.184Z,58.93
2023-03-26T14:14:17.633Z,58.39
2023-03-26T14:16:53.637Z,58.42
2023-03-26T14:20:14.862Z,58.64
2023-03-26T14:22:57.285Z,58.54
2023-03-26T14:25:51.017Z,59.48
2023-03-26T14:28:59.393Z,59.46
2023-03-26T14:31:37.539Z,59.36
2023-03-26T14:34:34.812Z,59.38
2023-03-26T14:37:51.572Z,59.92
2023-03-26T14:40:31.617Z,60.78
2023-03-26T14:43:24.574Z,59.92
2023-03-26T14:46:28.622Z,60.24
2023-03-26T14:49:38.804Z,59.74
2023-03-26T14:52:18.247Z,59.61
2023-03-26T14:54:50.822Z,60.36
2023-03-26T14:57:58.234Z,60.29
2023-03-26T15:01:04.271Z,59.31
2023-03-26T15:04:44.988Z,58.88
2023-03-26T15:08:07.628Z,58.47
2023-03-26T15:11:11.681Z,58.17
2023-03-26T15:14:02.824Z,58.18
2023-03-26T15:17:37.174Z,58.75
2023-03-26T15:21:13.883Z,60.16
2023-03-26T15:24:58.592Z,60.23
2023-03-26T15:28:26.747Z,58.65
2023-03-26T15:31:31.857Z,57.98
2023-03-26T15:34:48.481Z,58.62
2023-03-26T15:38:33.325Z,58.20
2023-03-26T15:41:17.530Z,57.34
2023-03-26T15:44:53.094Z,58.66
2023-03-26T15:47:57.776Z,58.42
2023-03-26T15:50:40.839Z,59.29
2023-03-26T15:53:41.170Z,59.54
2023-03-26T15:56:25.748Z,58.92
2023-03-26T15:59:06.782Z,59.00
2023-03-26T16:02:02.202Z,58.37
2023-03-26T16:04:50.492Z,59.76
2023-03-26T16:07:40.151Z,59.95
2023-03-26T16:10:28.013Z,60.08
2023-03-26T16:13:39.623Z,61.11
2023-03-26T16:16:55.843Z,61.50
2023-03-26T16:19:52.977Z,61.51
2023-03-26T16:22:55.966Z,61.64
2023-03-26T16:25:31.712Z,61.30
2023-03-26T16:28:29.967Z,61.72
2023-03-26T16:31:38.091Z,62.29
2023-03-26T16:34:29.550Z,62.75
2023-03-26T16:37:00.603Z,60.89
2023-03-26T16:39:49.230Z,61.80
2023-03-26T16:42:39.533Z,63.31
2023-03-26T16:45:22.826Z,62.92
2023-03-26T16:48:09.157Z,62.23
2023-03-26T16:50:52.681Z,62.15
2023-03-26T16:53:41.678Z,62.49
2023-03-26T16:56:18.097Z,62.00
2023-03-26T16:58:56.243Z,62.06
2023-03-26T17:01:36.515Z,63.05
2023-03-26T17:04:11.595Z,63.42
2023-03-26T17:07:08.588Z,64.06
2023-03-26T17:09:55.602Z,63.81
2023-03-26T17:12:35.478Z,63.82
2023-03-26T17:15:30.910Z,64.62
2023-03-26T17:18:25.748Z,64.07
2023-03-26T17:21:04.687Z,64.70
2023-03-26T17:23:55.859Z,65.88
2023-03-26T17:26:32.244Z,66.01
2023-03-26T17:29:24.324Z,65.43
2023-03-26T17:32:01.596Z,65.90
2023-03-26T17:35:02.098Z,64.96
2023-03-26T17:37:47.935Z,65.09
2023-03-26T17:40:49.376Z,64.83
2023-03-26T17:43:45.474Z,65.44
2023-03-26T17:46:32.913Z,65.54
2023-03-26T17:49:14.541Z,66.16
2023-03-26T17:51:52.443Z,66.23
2023-03-26T17:54:32.164Z,65.29
2023-03-26T17:57:04.373Z,66.70
2023-03-26T17:59:34.082Z,66.67
2023-03-26T18:02:05.393Z,66.34
2023-03-26T18:04:40.070Z,67.10
2023-03-26T18:07:36.006Z,66.84
2023-03-26T18:10:33.111Z,66.89
2023-03-26T18:13:37.447Z,66.26
2023-03-26T18:16:16.059Z,67.23
2023-03-26T18:18:51.344Z,67.68
2023-03-26T18:21:33.668Z,67.09
2023-03-26T18:24:03.175Z,65.50
2023-03-26T18:26:38.530Z,66.21
2023-03-26T18:29:23.826Z,65.46
2023-03-26T18:31:57.757Z,64.18
2023-03-26T18:34:29.147Z,64.33
2023-03-26T18:37:17.719Z,64.27
2023-03-26T18:39:59.292Z,64.22
2023-03-26T18:42:30.364Z,64.93
2023-03-26T18:45:00.837Z,63.81
2023-03-26T18:47:32.392Z,63.07
2023-03-26T18:50:01.689Z,63.43
2023-03-26T18:52:36.287Z,62.84
2023-03-26T18:55:04.916Z,63.32
2023-03-26T18:57:32.951Z,63.17
2023-03-26T19:00:20.551Z,63.18
2023-03-26T19:03:03.379Z,62.76
2023-03-26T19:05:35.091Z,63.05
2023-03-26T19:08:08.217Z,62.82
2023-03-26T19:10:38.175Z,63.54
2023-03-26T19:13:06.201Z,62.85
2023-03-26T19:20:47.976Z,64.06
2023-03-26T19:27:15.120Z,63.29
2023-03-26T19:29:45.127Z,62.64
2023-03-26T19:32:20.938Z,62.02
2023-03-26T19:34:50.673Z,62.22
2023-03-26T19:37:21.874Z,61.99
2023-03-26T19:39:54.382Z,61.59
2023-03-26T19:42:42.950Z,61.86
2023-03-26T19:45:19.874Z,62.63
2023-03-26T19:48:51.990Z,62.00
2023-03-26T19:51:23.355Z,62.03
2023-03-26T19:53:55.841Z,62.89
2023-03-26T19:56:25.741Z,62.78
2023-03-26T19:58:54.572Z,62.60
2023-03-26T20:01:26.691Z,63.22
2023-03-26T20:03:59.034Z,63.28
2023-03-26T20:06:42.323Z,63.34
2023-03-26T20:09:12.541Z,63.78
2023-03-26T20:11:42.242Z,63.89
2023-03-26T20:14:16.723Z,64.31
2023-03-26T20:16:45.812Z,64.24
2023-03-26T20:19:15.195Z,64.16
2023-03-26T20:21:44.313Z,64.28
2023-03-26T20:24:15.032Z,64.76
2023-03-26T20:26:45.732Z,63.90
2023-03-26T20:29:14.987Z,64.24
2023-03-26T20:31:44.318Z,64.16
2023-03-26T20:34:18.780Z,64.53
2023-03-26T20:36:47.445Z,64.31
2023-03-26T20:39:15.542Z,65.03
2023-03-26T20:41:49.937Z,63.73
2023-03-26T20:44:20.890Z,63.99
2023-03-26T20:46:51.398Z,63.78
2023-03-26T20:49:22.010Z,64.12
2023-03-26T20:51:49.950Z,63.37
2023-03-26T20:54:23.073Z,63.46
2023-03-26T20:56:54.420Z,64.06
2023-03-26T20:59:26.551Z,64.05
2023-03-26T21:01:57.486Z,64.41
2023-03-26T21:04:26.988Z,63.99
2023-03-26T21:07:00.608Z,64.11
2023-03-26T21:09:36.184Z,64.46
2023-03-26T21:12:09.577Z,64.08
2023-03-26T21:14:42.066Z,64.74
2023-03-26T21:17:17.488Z,64.48
2023-03-26T21:19:47.579Z,63.86
2023-03-26T21:22:31.459Z,64.00
2023-03-26T21:25:17.519Z,64.33
2023-03-26T21:27:58.726Z,64.85
2023-03-26T21:30:27.573Z,64.87
2023-03-26T21:32:55.730Z,64.40
2023-03-26T21:35:24.710Z,64.72
2023-03-26T21:37:54.126Z,64.98
2023-03-26T21:40:22.335Z,65.42
2023-03-26T21:42:54.706Z,65.22
2023-03-26T21:45:24.023Z,65.70
2023-03-26T21:47:52.902Z,65.67
2023-03-26T21:50:23.599Z,65.11
2023-03-26T21:52:52.906Z,65.51
2023-03-26T21:55:23.424Z,65.64
2023-03-26T21:58:17.617Z,65.72
2023-03-26T22:01:06.307Z,66.23
2023-03-26T22:03:46.901Z,65.98
2023-03-26T22:06:25.998Z,66.66
2023-03-26T22:08:54.348Z,66.84
2023-03-26T22:11:22.169Z,66.76
2023-03-26T22:13:51.391Z,67.12
2023-03-26T22:16:19.375Z,66.75
2023-03-26T22:18:47.279Z,66.86
2023-03-26T22:21:15.303Z,67.73
2023-03-26T22:23:43.169Z,67.58
2023-03-26T22:26:11.042Z,67.73
2023-03-26T22:28:39.243Z,68.27
2023-03-26T22:31:09.695Z,68.44
2023-03-26T22:33:40.034Z,69.07
2023-03-26T22:36:22.411Z,68.63
2023-03-26T22:38:54.617Z,68.41
2023-03-26T22:41:23.938Z,68.97
2023-03-26T22:43:52.690Z,69.26
2023-03-26T22:46:22.406Z,69.97
2023-03-26T22:48:51.110Z,69.76
2023-03-26T22:51:20.097Z,69.97
2023-03-26T22:53:48.316Z,70.14
2023-03-26T22:56:17.080Z,70.47
2023-03-26T22:58:45.413Z,70.55
2023-03-26T23:01:17.861Z,70.27
2023-03-26T23:03:47.568Z,70.93
2023-03-26T23:06:16.114Z,70.77
2023-03-26T23:08:44.495Z,71.03
2023-03-26T23:11:14.980Z,71.28
2023-03-26T23:13:44.625Z,71.12
2023-03-26T23:16:14.109Z,70.98
2023-03-26T23:18:42.655Z,71.24
2023-03-26T23:21:18.192Z,71.89
2023-03-26T23:23:46.933Z,71.86
2023-03-26T23:26:15.444Z,71.68
2023-03-26T23:28:44.157Z,72.17
2023-03-26T23:31:14.019Z,72.09
2023-03-26T23:33:46.156Z,72.09
2023-03-26T23:36:18.940Z,72.01
2023-03-26T23:38:49.093Z,72.01
2023-03-26T23:41:21.420Z,72.23
2023-03-26T23:43:55.498Z,72.62
2023-03-26T23:46:30.820Z,72.42
2023-03-26T23:48:59.814Z,72.60
2023-03-26T23:51:30.488Z,72.74
2023-03-26T23:53:59.683Z,73.24
2023-03-26T23:56:29.635Z,73.62
2023-03-26T23:58:58.134Z,73.92
